Time;durP1;ratioP1;P1;durP2;ratioP2;P2;SDS_P1;SDS_P2;PMS_P1;PMS_P2;Temp;Humidity;BMP_temperature;BMP_pressure;BME280_temperature;BME280_humidity;BME280_pressure;Samples;Min_cycle;Max_cycle;Signal;HPM_P1;HPM_P2
2022/01/04 00:01:30;;;;;;;12.60;7.70;;;;;;;4.21;76.58;100393.60;107196;1251;72369;-76
2022/01/04 00:03:59;;;;;;;11.60;7.70;;;;;;;4.22;77.99;100396.65;107342;1250;60504;-76
2022/01/04 00:06:28;;;;;;;14.70;8.50;;;;;;;4.20;77.79;100402.77;107166;1252;60774;-77
2022/01/04 00:09:01;;;;;;;12.40;7.80;;;;;;;4.23;77.40;100403.14;107315;1250;72281;-76
2022/01/04 00:11:46;;;;;;;12.10;7.00;;;;;;;4.22;77.24;100407.52;107244;1249;71279;-77
2022/01/04 00:14:15;;;;;;;14.30;8.30;;;;;;;4.21;77.92;100408.45;107302;1250;67971;-75
2022/01/04 00:16:45;;;;;;;14.10;8.40;;;;;;;4.24;79.12;100413.27;107239;1250;72461;-77
2022/01/04 00:19:14;;;;;;;13.80;8.90;;;;;;;4.25;79.16;100416.50;107282;1249;59728;-78
2022/01/04 00:21:43;;;;;;;13.00;8.10;;;;;;;4.21;78.75;100412.54;107287;1250;59013;-77
2022/01/04 00:24:12;;;;;;;14.20;8.40;;;;;;;4.19;77.17;100415.77;107148;1251;72623;-76
2022/01/04 00:26:42;;;;;;;13.20;7.50;;;;;;;4.22;78.39;100419.05;107238;1251;70740;-78
2022/01/04 00:29:16;;;;;;;12.20;7.70;;;;;;;4.24;79.18;100420.69;107305;1250;70537;-79
2022/01/04 00:31:46;;;;;;;14.50;7.10;;;;;;;4.28;78.92;100425.50;107101;1248;74782;-74
2022/01/04 00:34:15;;;;;;;12.30;7.50;;;;;;;4.30;78.63;100428.67;107363;1250;60472;-79
2022/01/04 00:36:44;;;;;;;13.10;7.30;;;;;;;4.31;78.40;100432.41;107311;1250;60257;-76
2022/01/04 00:39:13;;;;;;;13.60;7.80;;;;;;;4.30;78.23;100431.08;107425;1250;73338;-76
2022/01/04 00:41:42;;;;;;;11.10;6.60;;;;;;;4.30;78.28;100433.13;107308;1250;70919;-77
2022/01/04 00:44:11;;;;;;;11.00;6.90;;;;;;;4.35;78.60;100437.36;107442;1250;68736;-71
2022/01/04 00:46:40;;;;;;;11.40;7.00;;;;;;;4.37;78.49;100437.46;107236;1250;72278;-77
2022/01/04 00:49:10;;;;;;;10.90;6.60;;;;;;;4.42;78.19;100441.14;107251;1250;59757;-78
2022/01/04 00:51:43;;;;;;;11.40;6.70;;;;;;;4.41;77.93;100442.06;107345;1250;59424;-76
2022/01/04 00:54:13;;;;;;;11.80;7.30;;;;;;;4.38;78.32;100444.27;107276;1251;72818;-73
2022/01/04 00:56:44;;;;;;;10.90;7.00;;;;;;;4.35;77.93;100446.17;108433;1250;71218;-76
2022/01/04 00:59:17;;;;;;;11.60;7.50;;;;;;;4.33;77.31;100445.42;108294;1251;70876;-76
2022/01/04 01:01:46;;;;;;;15.30;9.80;;;;;;;4.32;77.41;100446.50;107399;1251;71756;-77
2022/01/04 01:04:18;;;;;;;15.30;9.30;;;;;;;4.31;77.33;100447.58;106919;1251;437412;-76
2022/01/04 01:06:47;;;;;;;16.10;9.90;;;;;;;4.31;77.93;100454.98;107280;1249;62316;-79
2022/01/04 01:09:16;;;;;;;13.10;9.20;;;;;;;4.32;77.60;100454.92;107349;1251;76375;-75
2022/01/04 01:11:45;;;;;;;15.60;10.20;;;;;;;4.33;77.70;100457.48;107217;1250;72574;-78
2022/01/04 01:14:14;;;;;;;16.00;10.20;;;;;;;4.30;77.64;100460.39;107224;1251;70961;-75
2022/01/04 01:16:43;;;;;;;17.80;10.70;;;;;;;4.29;77.49;100460.95;107086;1253;74750;-76
2022/01/04 01:19:12;;;;;;;14.90;9.00;;;;;;;4.27;77.38;100465.35;107216;1251;62549;-75
2022/01/04 01:21:41;;;;;;;15.10;9.60;;;;;;;4.30;77.88;100467.80;107104;1253;60112;-81
2022/01/04 01:24:10;;;;;;;15.50;9.70;;;;;;;4.28;77.63;100468.92;107141;1253;71993;-76
2022/01/04 01:26:39;;;;;;;15.10;10.30;;;;;;;4.28;78.02;100467.89;107569;1250;70401;-76
2022/01/04 01:29:08;;;;;;;15.10;10.80;;;;;;;4.27;78.12;100467.45;107973;1251;70059;-77
2022/01/04 01:31:37;;;;;;;11.30;8.00;;;;;;;4.23;77.98;100467.63;107391;1250;74225;-78
2022/01/04 01:34:07;;;;;;;9.50;6.80;;;;;;;4.23;78.66;100469.14;107344;1249;63889;-76
2022/01/04 01:36:36;;;;;;;10.70;7.50;;;;;;;4.25;78.42;100467.67;107411;1250;61624;-76
2022/01/04 01:39:05;;;;;;;8.00;4.90;;;;;;;4.28;78.55;100465.17;107400;1250;75248;-76
2022/01/04 01:41:34;;;;;;;8.90;5.70;;;;;;;4.33;79.38;100458.88;107362;1250;71730;-76
2022/01/04 01:44:04;;;;;;;5.00;3.00;;;;;;;4.38;79.28;100456.00;107258;1250;68570;-78
2022/01/04 01:46:33;;;;;;;6.50;3.20;;;;;;;4.48;80.58;100454.98;107107;1250;73939;-77
2022/01/04 01:49:02;;;;;;;4.20;3.00;;;;;;;4.63;80.31;100455.74;107099;1250;63416;-77
2022/01/04 01:51:31;;;;;;;5.90;2.60;;;;;;;4.76;79.75;100455.80;107083;1251;59608;-78
2022/01/04 01:54:01;;;;;;;6.20;3.90;;;;;;;4.92;79.36;100451.13;106813;1254;74465;-77
2022/01/04 01:56:30;;;;;;;7.60;4.20;;;;;;;5.03;78.64;100447.42;107133;1251;71955;-74
2022/01/04 01:58:59;;;;;;;7.40;4.00;;;;;;;5.09;79.04;100445.08;106926;1254;68451;-77
2022/01/04 02:01:28;;;;;;;5.40;3.40;;;;;;;5.11;79.48;100443.59;106989;1252;72201;-74
2022/01/04 02:03:57;;;;;;;6.20;3.80;;;;;;;5.12;79.54;100446.64;108208;1249;60144;-77
2022/01/04 02:06:29;;;;;;;5.40;3.40;;;;;;;5.15;78.00;100447.15;107050;1253;58896;-76
2022/01/04 02:09:00;;;;;;;6.00;3.80;;;;;;;5.16;77.19;100451.91;107265;1252;72277;-74
2022/01/04 02:11:31;;;;;;;6.40;3.80;;;;;;;5.15;76.63;100450.06;107354;1252;69587;-75
2022/01/04 02:14:02;;;;;;;5.90;3.60;;;;;;;5.11;76.53;100453.06;107313;1253;69201;-80
2022/01/04 02:16:32;;;;;;;4.80;3.50;;;;;;;5.08;76.43;100458.09;107082;1252;70423;-77
2022/01/04 02:19:07;;;;;;;7.60;3.90;;;;;;;5.06;75.68;100460.41;107217;1249;62160;-76
2022/01/04 02:21:36;;;;;;;7.00;4.00;;;;;;;4.96;76.59;100459.40;107191;1252;60418;-74
2022/01/04 02:24:06;;;;;;;6.80;4.20;;;;;;;4.87;76.57;100460.23;107187;1251;73555;-76
2022/01/04 02:26:35;;;;;;;5.80;4.40;;;;;;;4.80;76.02;100459.70;107084;1250;70696;-77
2022/01/04 02:29:04;;;;;;;8.30;4.70;;;;;;;4.76;76.16;100459.02;107139;1250;71020;-78
2022/01/04 02:31:33;;;;;;;8.40;4.60;;;;;;;4.74;76.44;100457.23;107034;1251;74972;-76
2022/01/04 02:34:02;;;;;;;7.20;4.80;;;;;;;4.71;76.91;100463.11;107124;1251;60971;-76
2022/01/04 02:36:31;;;;;;;7.40;4.40;;;;;;;4.70;76.88;100461.80;107134;1250;60485;-78
2022/01/04 02:39:00;;;;;;;7.30;4.60;;;;;;;4.68;77.32;100462.58;107025;1251;74724;-75
2022/01/04 02:41:29;;;;;;;8.00;4.60;;;;;;;4.67;78.20;100462.48;107065;1249;71199;-77
2022/01/04 02:43:58;;;;;;;6.90;4.40;;;;;;;4.61;78.66;100467.45;107046;1252;69007;-77
2022/01/04 02:46:27;;;;;;;8.60;4.90;;;;;;;4.57;77.92;100466.61;106990;1251;72389;-77
2022/01/04 02:48:56;;;;;;;7.70;5.30;;;;;;;4.58;77.93;100468.11;106973;1251;64058;-76
2022/01/04 02:51:25;;;;;;;6.30;4.00;;;;;;;4.61;77.73;100471.40;107129;1250;61082;-76
2022/01/04 02:53:54;;;;;;;7.90;5.20;;;;;;;4.61;78.02;100473.28;107115;1253;75404;-77
2022/01/04 02:56:23;;;;;;;9.20;6.50;;;;;;;4.61;77.73;100466.20;106998;1252;73249;-78
2022/01/04 02:58:53;;;;;;;9.90;6.90;;;;;;;4.63;77.45;100461.80;107172;1251;69293;-78
2022/01/04 03:01:22;;;;;;;10.50;6.50;;;;;;;4.62;77.47;100461.66;107269;1249;72004;-78
2022/01/04 03:03:51;;;;;;;8.90;6.10;;;;;;;4.61;77.34;100462.09;107184;1250;59618;-78
2022/01/04 03:06:20;;;;;;;6.70;4.30;;;;;;;4.59;77.63;100462.90;107239;1251;60752;-76
2022/01/04 03:08:50;;;;;;;4.50;2.70;;;;;;;4.56;78.78;100459.92;107202;1251;72036;-77
2022/01/04 03:11:19;;;;;;;4.40;2.20;;;;;;;4.54;78.83;100459.70;107297;1250;72326;-77
2022/01/04 03:13:48;;;;;;;4.10;2.40;;;;;;;4.53;79.39;100456.27;107219;1251;71487;-77
2022/01/04 03:16:16;;;;;;;3.90;2.70;;;;;;;4.48;78.08;100452.56;107175;1251;73998;-75
2022/01/04 03:19:07;;;;;;;4.00;3.00;;;;;;;4.46;77.48;100450.25;107170;1250;61030;-76
2022/01/04 03:21:40;;;;;;;4.90;3.50;;;;;;;4.43;77.64;100454.56;107209;1252;60102;-75
2022/01/04 03:24:13;;;;;;;4.20;3.00;;;;;;;4.38;77.90;100448.94;107282;1251;74460;-77
2022/01/04 03:26:42;;;;;;;5.60;3.40;;;;;;;4.37;77.83;100453.80;107325;1251;71802;-76
2022/01/04 03:29:14;;;;;;;5.20;3.70;;;;;;;4.33;78.26;100449.88;107233;1251;68951;-77
2022/01/04 03:31:44;;;;;;;7.10;4.00;;;;;;;4.30;78.33;100456.39;107258;1251;73967;-75
2022/01/04 03:34:13;;;;;;;6.10;4.50;;;;;;;4.30;78.35;100455.58;106977;1254;61651;-79
2022/01/04 03:36:42;;;;;;;6.00;4.10;;;;;;;4.28;78.91;100456.84;107219;1250;60700;-79
2022/01/04 03:39:12;;;;;;;6.90;5.00;;;;;;;4.19;78.87;100460.79;107294;1250;71697;-75
2022/01/04 03:41:44;;;;;;;7.80;4.50;;;;;;;4.16;78.73;100464.72;107153;1251;70782;-79
2022/01/04 03:44:20;;;;;;;7.60;4.50;;;;;;;4.14;79.04;100465.50;107034;1253;68752;-73
2022/01/04 03:46:53;;;;;;;7.60;5.00;;;;;;;4.09;78.74;100464.88;107074;1251;71338;-78
2022/01/04 03:49:23;;;;;;;6.10;4.10;;;;;;;4.04;79.22;100458.07;107299;1250;60304;-77
2022/01/04 03:51:52;;;;;;;10.20;5.90;;;;;;;3.99;79.23;100453.66;107280;1251;62369;-73
2022/01/04 03:54:22;;;;;;;7.50;5.50;;;;;;;3.95;79.68;100457.10;107300;1249;74124;-77
2022/01/04 03:56:51;;;;;;;10.80;7.00;;;;;;;3.90;79.76;100459.09;107327;1249;69956;-76
2022/01/04 03:59:20;;;;;;;8.60;5.80;;;;;;;3.82;79.91;100453.98;107352;1251;70499;-77
2022/01/04 04:01:49;;;;;;;10.20;5.90;;;;;;;3.71;79.99;100454.48;107017;1251;74808;-79
2022/01/04 04:04:19;;;;;;;13.00;7.20;;;;;;;3.61;80.24;100460.48;107253;1251;63371;-77
2022/01/04 04:06:48;;;;;;;10.20;6.20;;;;;;;3.50;80.66;100455.86;107233;1250;60370;-77
2022/01/04 04:09:17;;;;;;;10.80;6.30;;;;;;;3.38;80.84;100457.94;107287;1251;74025;-78
2022/01/04 04:11:46;;;;;;;9.40;6.60;;;;;;;3.30;80.99;100459.02;107154;1253;72004;-81
2022/01/04 04:14:15;;;;;;;10.80;6.40;;;;;;;3.20;80.81;100455.34;107177;1251;69438;-75
2022/01/04 04:17:05;;;;;;;11.30;6.90;;;;;;;3.06;80.72;100453.22;107099;1252;72354;-77
2022/01/04 04:19:34;;;;;;;10.10;6.20;;;;;;;2.94;80.62;100452.58;107231;1251;63153;-77
2022/01/04 04:22:04;;;;;;;9.70;6.30;;;;;;;2.82;81.46;100448.80;107195;1251;62016;-77
2022/01/04 04:24:33;;;;;;;9.60;5.70;;;;;;;2.71;81.76;100446.71;107223;1251;72196;-76
2022/01/04 04:27:02;;;;;;;9.30;6.00;;;;;;;2.62;81.65;100450.01;107217;1251;69970;-76
2022/01/04 04:29:32;;;;;;;7.80;5.90;;;;;;;2.55;82.16;100448.95;107109;1251;69092;-79
2022/01/04 04:32:03;;;;;;;10.10;6.00;;;;;;;2.48;82.12;100448.25;107077;1251;72005;-76
2022/01/04 04:34:32;;;;;;;9.20;6.50;;;;;;;2.39;81.88;100449.45;107242;1251;60481;-78
2022/01/04 04:37:01;;;;;;;9.10;5.80;;;;;;;2.31;82.07;100452.39;107308;1249;61778;-76
2022/01/04 04:39:30;;;;;;;11.80;6.70;;;;;;;2.20;81.84;100450.58;107151;1251;73713;-79
2022/01/04 04:42:01;;;;;;;10.40;6.60;;;;;;;2.08;81.89;100451.27;107250;1250;72768;-78
2022/01/04 04:44:30;;;;;;;9.90;6.40;;;;;;;1.97;81.71;100448.33;107255;1250;71919;-79
2022/01/04 04:47:00;;;;;;;13.70;6.40;;;;;;;1.86;81.93;100443.76;107148;1252;73448;-79
2022/01/04 04:49:29;;;;;;;15.30;12.70;;;;;;;1.74;82.35;100440.29;107245;1249;60008;-79
2022/01/04 04:51:59;;;;;;;19.20;14.00;;;;;;;1.64;83.08;100438.45;107184;1251;59916;-74
2022/01/04 04:54:29;;;;;;;11.60;6.00;;;;;;;1.58;84.44;100439.38;107219;1250;72555;-78
2022/01/04 04:56:58;;;;;;;8.40;4.90;;;;;;;1.54;83.65;100440.76;107026;1252;69995;-79
2022/01/04 04:59:27;;;;;;;12.90;7.60;;;;;;;1.52;83.42;100445.29;107188;1250;71408;-75
2022/01/04 05:01:56;;;;;;;10.40;5.40;;;;;;;1.46;83.39;100442.60;107168;1251;71646;-77
2022/01/04 05:04:26;;;;;;;16.30;8.50;;;;;;;1.38;83.55;100441.40;107218;1251;60000;-79
2022/01/04 05:06:55;;;;;;;15.60;7.50;;;;;;;1.35;83.62;100445.43;107115;1251;62035;-78
2022/01/04 05:09:24;;;;;;;14.00;7.20;;;;;;;1.34;83.52;100454.24;107320;1251;73199;-72
2022/01/04 05:11:53;;;;;;;12.30;5.90;;;;;;;1.29;83.37;100460.58;107153;1251;72537;-78
2022/01/04 05:14:22;;;;;;;14.20;6.80;;;;;;;1.25;83.54;100458.15;107140;1251;71403;-74
2022/01/04 05:16:51;;;;;;;15.20;7.30;;;;;;;1.15;83.26;100456.30;107235;1251;72386;-73
2022/01/04 05:19:20;;;;;;;13.60;7.00;;;;;;;1.01;82.95;100457.33;107074;1252;60626;-75
2022/01/04 05:21:49;;;;;;;13.20;8.60;;;;;;;0.95;83.15;100452.95;107182;1251;58932;-75
2022/01/04 05:24:18;;;;;;;23.20;14.00;;;;;;;0.89;83.58;100457.11;107100;1251;72615;-74
2022/01/04 05:26:48;;;;;;;29.90;15.50;;;;;;;0.83;83.64;100459.05;107246;1251;71266;-75
2022/01/04 05:29:16;;;;;;;29.10;15.30;;;;;;;0.76;83.54;100462.36;106920;1253;70624;-72
2022/01/04 05:31:45;;;;;;;23.90;13.70;;;;;;;0.71;84.08;100465.13;106905;1251;75721;-74
2022/01/04 05:34:14;;;;;;;27.50;19.90;;;;;;;0.66;84.26;100461.88;106803;1253;62432;-73
2022/01/04 05:36:43;;;;;;;21.70;12.80;;;;;;;0.60;84.22;100461.23;106706;1253;60487;-72
2022/01/04 05:39:12;;;;;;;13.40;9.10;;;;;;;0.55;84.17;100471.17;106801;1251;72700;-71
2022/01/04 05:41:41;;;;;;;11.50;6.40;;;;;;;0.47;84.53;100468.02;106768;1251;70752;-73
2022/01/04 05:44:11;;;;;;;12.20;7.20;;;;;;;0.44;84.83;100470.51;106703;1252;68347;-77
2022/01/04 05:46:40;;;;;;;11.20;7.50;;;;;;;0.42;84.71;100471.11;106844;1251;73456;-74
2022/01/04 05:49:10;;;;;;;20.00;9.70;;;;;;;0.41;85.19;100472.19;108986;1251;59896;-74
2022/01/04 05:51:39;;;;;;;16.90;9.10;;;;;;;0.38;84.75;100473.29;106967;1251;60476;-74
2022/01/04 05:54:08;;;;;;;14.10;8.50;;;;;;;0.34;84.21;100476.70;106848;1251;75300;-75
2022/01/04 05:56:37;;;;;;;13.70;7.40;;;;;;;0.30;84.60;100481.30;107081;1251;73097;-74
2022/01/04 05:59:06;;;;;;;11.30;7.40;;;;;;;0.29;84.89;100477.90;106987;1251;71189;-74
2022/01/04 06:01:35;;;;;;;14.50;8.30;;;;;;;0.29;84.87;100480.82;106933;1253;72894;-74
2022/01/04 06:04:04;;;;;;;11.80;7.70;;;;;;;0.25;84.50;100479.21;107071;1251;59571;-74
2022/01/04 06:06:33;;;;;;;13.90;7.80;;;;;;;0.21;84.39;100477.47;107084;1251;59801;-75
2022/01/04 06:09:02;;;;;;;10.50;6.40;;;;;;;0.16;84.54;100477.64;106992;1253;73714;-74
2022/01/04 06:14:50;;;;;;;;;;;;;;;;;;;;;
2022/01/04 06:14:50;;;;;;;13.70;7.50;;;;;;;0.19;85.42;100476.34;106992;1251;68503;-73
2022/01/04 06:17:26;;;;;;;13.80;7.30;;;;;;;0.20;85.09;100476.65;106958;1252;72702;-74
2022/01/04 06:19:57;;;;;;;11.60;8.20;;;;;;;0.20;85.09;100473.56;106994;1251;61062;-76
2022/01/04 06:22:28;;;;;;;13.40;7.20;;;;;;;0.25;85.36;100475.79;107072;1250;62246;-73
2022/01/04 06:24:58;;;;;;;12.40;6.40;;;;;;;0.32;84.89;100475.21;107125;1250;73295;-78
2022/01/04 06:27:27;;;;;;;11.50;7.00;;;;;;;0.39;84.70;100474.98;107173;1251;71868;-76
2022/01/04 06:29:57;;;;;;;9.70;5.60;;;;;;;0.43;84.44;100473.81;107180;1251;68558;-76
2022/01/04 06:32:26;;;;;;;11.20;6.70;;;;;;;0.45;84.64;100478.37;107298;1250;73908;-75
2022/01/04 06:34:55;;;;;;;12.40;6.60;;;;;;;0.47;84.56;100474.35;107189;1251;60152;-77
2022/01/04 06:37:24;;;;;;;13.20;7.50;;;;;;;0.49;84.45;100476.87;107234;1251;60087;-75
2022/01/04 06:39:53;;;;;;;11.60;7.20;;;;;;;0.55;84.84;100479.58;107262;1250;72850;-75
2022/01/04 06:42:22;;;;;;;16.30;8.40;;;;;;;0.63;84.58;100485.14;107056;1251;70707;-75
2022/01/04 06:44:51;;;;;;;12.50;8.70;;;;;;;0.67;84.16;100482.21;107183;1250;69509;-74
2022/01/04 06:47:20;;;;;;;17.20;8.80;;;;;;;0.72;83.86;100477.25;107203;1251;72341;-76
2022/01/04 06:49:49;;;;;;;16.10;8.80;;;;;;;0.74;83.20;100477.52;107190;1251;59864;-76
2022/01/04 06:52:18;;;;;;;15.10;9.60;;;;;;;0.76;83.07;100476.25;107171;1250;62778;-76
2022/01/04 06:54:47;;;;;;;14.60;8.90;;;;;;;0.79;83.59;100479.58;107325;1251;74825;-74
2022/01/04 06:57:20;;;;;;;19.30;11.70;;;;;;;0.85;83.60;100479.89;107307;1250;72654;-75
2022/01/04 06:59:49;;;;;;;19.30;11.90;;;;;;;0.94;83.81;100484.70;107298;1251;72151;-79
2022/01/04 07:02:18;;;;;;;20.70;13.30;;;;;;;1.03;83.93;100479.39;107063;1251;74513;-76
2022/01/04 07:04:47;;;;;;;20.80;12.70;;;;;;;1.09;83.58;100481.40;107105;1250;60097;-77
2022/01/04 07:07:16;;;;;;;20.80;12.60;;;;;;;1.17;83.66;100482.50;107046;1250;59315;-75
2022/01/04 07:09:45;;;;;;;20.20;11.80;;;;;;;1.25;83.50;100486.15;107036;1251;71961;-72
2022/01/04 07:12:14;;;;;;;13.40;8.40;;;;;;;1.30;83.45;100481.13;107105;1250;70420;-74
2022/01/04 07:14:43;;;;;;;18.80;9.90;;;;;;;1.43;83.69;100486.16;107183;1250;67983;-74
2022/01/04 07:17:12;;;;;;;17.40;10.30;;;;;;;1.54;83.49;100486.39;107177;1251;74864;-78
2022/01/04 07:19:41;;;;;;;17.30;10.90;;;;;;;1.64;83.52;100488.95;107208;1250;58619;-87
2022/01/04 07:22:10;;;;;;;21.50;11.70;;;;;;;1.74;83.06;100486.66;107028;1251;59807;-80
2022/01/04 07:24:39;;;;;;;28.10;14.70;;;;;;;1.85;82.97;100484.84;107142;1251;72852;-84
2022/01/04 07:27:08;;;;;;;25.70;15.70;;;;;;;1.95;82.75;100484.27;107110;1252;70364;-84
2022/01/04 07:29:37;;;;;;;28.80;16.00;;;;;;;2.09;82.50;100483.36;107382;1250;67080;-71
2022/01/04 07:32:06;;;;;;;29.40;17.20;;;;;;;2.19;82.87;100480.52;107017;1251;73199;-77
2022/01/04 07:34:35;;;;;;;44.90;28.00;;;;;;;2.27;82.41;100476.79;107163;1251;59520;-76
2022/01/04 07:37:04;;;;;;;43.50;27.70;;;;;;;2.38;82.58;100478.89;107134;1251;59758;-78
2022/01/04 07:39:33;;;;;;;42.70;25.90;;;;;;;2.52;82.59;100474.68;107172;1251;73099;-77
2022/01/04 07:42:04;;;;;;;39.30;25.90;;;;;;;2.67;82.88;100477.31;107244;1251;72228;-78
2022/01/04 07:44:34;;;;;;;45.20;29.30;;;;;;;2.80;82.41;100474.15;107292;1250;70169;-78
2022/01/04 07:47:03;;;;;;;50.80;29.70;;;;;;;2.94;83.61;100472.33;107045;1251;72791;-76
2022/01/04 07:49:33;;;;;;;37.20;23.60;;;;;;;3.08;82.99;100476.34;107133;1252;60624;-71
2022/01/04 07:52:04;;;;;;;33.60;20.00;;;;;;;3.23;82.25;100474.81;107274;1250;60266;-74
2022/01/04 07:54:33;;;;;;;38.10;22.30;;;;;;;3.37;81.27;100480.86;107071;1251;74839;-73
2022/01/04 07:57:02;;;;;;;40.10;26.50;;;;;;;3.49;80.56;100485.85;107292;1251;73743;-71
2022/01/04 07:59:34;;;;;;;45.60;35.10;;;;;;;3.58;80.57;100485.59;107449;1251;72011;-76
2022/01/04 08:02:04;;;;;;;36.10;23.00;;;;;;;3.72;81.06;100493.04;107555;1251;73947;-72
2022/01/04 08:04:34;;;;;;;34.30;21.30;;;;;;;3.88;80.85;100495.18;107161;1251;62193;-74
2022/01/04 08:07:03;;;;;;;37.40;22.80;;;;;;;4.03;80.04;100491.03;107222;1251;61780;-74
2022/01/04 08:09:32;;;;;;;39.20;24.30;;;;;;;4.12;78.74;100486.79;107102;1251;74343;-77
2022/01/04 08:12:03;;;;;;;42.90;27.50;;;;;;;4.09;78.04;100485.88;107299;1251;70393;-73
2022/01/04 08:14:32;;;;;;;37.70;24.80;;;;;;;4.13;78.60;100491.91;107218;1253;69750;-74
2022/01/04 08:17:06;;;;;;;32.70;20.20;;;;;;;4.16;78.41;100495.22;107505;1250;71775;-73
2022/01/04 08:19:36;;;;;;;28.50;18.00;;;;;;;4.22;79.39;100495.23;107156;1251;59835;-75
2022/01/04 08:22:05;;;;;;;31.60;18.70;;;;;;;4.28;79.50;100497.20;107317;1250;60373;-77
2022/01/04 08:24:34;;;;;;;26.90;16.60;;;;;;;4.35;79.83;100495.83;107362;1250;73236;-74
2022/01/04 08:27:04;;;;;;;23.90;14.80;;;;;;;4.42;80.37;100499.77;107222;1250;72434;-74
2022/01/04 08:29:32;;;;;;;24.80;15.60;;;;;;;4.48;79.19;100493.10;107272;1251;70924;-76
2022/01/04 08:32:03;;;;;;;23.70;15.80;;;;;;;4.60;80.16;100493.55;107179;1250;73314;-73
2022/01/04 08:34:32;;;;;;;29.80;17.30;;;;;;;4.71;79.36;100492.44;107015;1250;62273;-74
2022/01/04 08:37:01;;;;;;;39.30;23.10;;;;;;;4.79;75.01;100490.98;107053;1250;62868;-78
2022/01/04 08:39:30;;;;;;;38.30;21.80;;;;;;;5.02;76.81;100491.72;107143;1251;73342;-76
2022/01/04 08:42:02;;;;;;;25.30;15.50;;;;;;;5.14;75.20;100489.48;107078;1251;70737;-84
2022/01/04 08:44:33;;;;;;;21.50;14.10;;;;;;;5.17;75.15;100489.54;107045;1251;68802;-76
2022/01/04 08:47:03;;;;;;;20.00;12.00;;;;;;;5.20;75.84;100485.70;106889;1251;73961;-78
2022/01/04 08:49:32;;;;;;;24.30;13.40;;;;;;;5.30;74.23;100480.70;106983;1251;62784;-79
2022/01/04 08:52:05;;;;;;;18.90;13.20;;;;;;;5.31;73.05;100474.57;107007;1252;61633;-77
2022/01/04 08:54:36;;;;;;;21.00;13.90;;;;;;;5.36;72.09;100469.83;106928;1252;71860;-78
2022/01/04 08:57:06;;;;;;;20.90;12.50;;;;;;;5.56;74.02;100473.06;107198;1250;71659;-78
2022/01/04 08:59:35;;;;;;;24.30;14.80;;;;;;;5.82;75.77;100471.05;107003;1250;70422;-73
2022/01/04 09:02:05;;;;;;;23.50;14.90;;;;;;;5.99;72.98;100469.28;106962;1250;73779;-75
2022/01/04 09:04:34;;;;;;;22.10;14.20;;;;;;;6.14;73.18;100461.35;106973;1251;62001;-74
2022/01/04 09:07:04;;;;;;;24.90;15.60;;;;;;;6.07;68.93;100453.05;107226;1250;61296;-73
2022/01/04 09:09:33;;;;;;;24.00;15.60;;;;;;;6.21;70.69;100452.81;107072;1251;72690;-75
2022/01/04 09:12:26;;;;;;;30.10;17.90;;;;;;;6.33;69.27;100451.08;107000;1250;72793;-76
2022/01/04 09:20:13;;;;;;;27.70;18.50;;;;;;;6.33;68.54;100445.02;106904;1252;59671;-73
2022/01/04 09:22:43;;;;;;;29.60;17.40;;;;;;;6.40;69.10;100442.35;107070;1249;61591;-75
2022/01/04 09:25:12;;;;;;;24.70;16.20;;;;;;;6.51;68.75;100438.92;106962;1251;73068;-73
2022/01/04 09:27:42;;;;;;;25.10;18.00;;;;;;;6.72;70.07;100436.58;106888;1250;71780;-73
2022/01/04 09:30:11;;;;;;;30.70;18.40;;;;;;;6.90;68.84;100441.08;106926;1250;71358;-75
2022/01/04 09:32:41;;;;;;;30.20;19.20;;;;;;;7.08;70.02;100445.15;107028;1251;74191;-73
2022/01/04 09:35:12;;;;;;;28.80;18.10;;;;;;;7.24;68.73;100443.98;106957;1252;61363;-75
2022/01/04 09:37:42;;;;;;;30.90;18.80;;;;;;;7.41;70.39;100445.33;107031;1249;59616;-82
2022/01/04 09:40:12;;;;;;;27.50;18.50;;;;;;;7.58;68.32;100443.56;107088;1251;74440;-76
2022/01/04 09:42:42;;;;;;;28.60;20.00;;;;;;;7.74;65.34;100444.95;107130;1249;72453;-74
2022/01/04 09:45:12;;;;;;;30.80;21.60;;;;;;;7.95;63.29;100446.04;107071;1251;69095;-73
2022/01/04 09:47:42;;;;;;;34.30;22.40;;;;;;;8.25;63.06;100447.85;107234;1249;72218;-75
2022/01/04 09:50:11;;;;;;;32.90;22.10;;;;;;;8.49;64.94;100447.11;107337;1249;59776;-76
2022/01/04 09:52:47;;;;;;;35.80;23.20;;;;;;;8.68;61.58;100447.89;107144;1249;59679;-73
2022/01/04 09:55:18;;;;;;;36.10;22.90;;;;;;;8.95;62.18;100450.20;107042;1250;72513;-70
2022/01/04 09:57:48;;;;;;;34.00;22.10;;;;;;;8.94;59.68;100441.57;107363;1251;71214;-74
2022/01/04 10:00:19;;;;;;;36.10;20.80;;;;;;;9.15;59.82;100438.21;107159;1251;69331;-74
2022/01/04 10:02:50;;;;;;;33.10;20.50;;;;;;;9.21;58.88;100430.30;107193;1250;73031;-74
2022/01/04 10:05:23;;;;;;;28.50;20.10;;;;;;;9.37;60.34;100428.14;107116;1250;60371;-78
2022/01/04 10:08:05;;;;;;;28.20;19.30;;;;;;;9.50;58.94;100425.81;107347;1249;59758;-76
2022/01/04 10:10:36;;;;;;;31.70;18.50;;;;;;;9.66;57.59;100419.61;107263;1249;73649;-74
2022/01/04 10:13:10;;;;;;;29.90;18.70;;;;;;;9.74;56.66;100416.55;107145;1251;70167;-74
2022/01/04 10:15:50;;;;;;;26.40;18.00;;;;;;;9.82;57.19;100409.88;107071;1251;69756;-75
2022/01/04 10:18:26;;;;;;;24.00;15.20;;;;;;;9.86;58.31;100409.06;107114;1251;71871;-74
2022/01/04 10:20:58;;;;;;;25.30;16.20;;;;;;;9.77;54.45;100398.59;107150;1250;59600;-75
2022/01/04 10:23:28;;;;;;;24.50;15.90;;;;;;;9.90;57.38;100400.09;107279;1249;61152;-73
2022/01/04 10:26:07;;;;;;;24.30;15.60;;;;;;;9.88;57.13;100394.84;106869;1251;74518;-78
2022/01/04 10:28:40;;;;;;;21.90;13.90;;;;;;;9.94;55.10;100397.52;107529;1249;70164;-74
2022/01/04 10:31:15;;;;;;;;;;;;;;;10.10;56.49;100388.66;107338;1250;70459;-76
2022/01/04 10:33:51;;;;;;;21.40;11.90;;;;;;;10.25;57.28;100381.31;106941;1251;71761;-74
2022/01/04 10:36:21;;;;;;;21.30;12.20;;;;;;;10.36;56.92;100379.45;107301;1249;60324;-74
2022/01/04 10:38:51;;;;;;;22.00;11.70;;;;;;;10.37;54.90;100368.55;107260;1250;61299;-76
2022/01/04 10:41:27;;;;;;;21.60;10.50;;;;;;;10.48;56.82;100361.10;107076;1251;72183;-72
2022/01/04 10:44:06;;;;;;;21.70;10.40;;;;;;;10.26;51.96;100347.60;106965;1251;70364;-74
2022/01/04 10:46:42;;;;;;;20.50;9.50;;;;;;;10.42;52.90;100352.86;107023;1251;70665;-78
2022/01/04 10:49:23;;;;;;;17.90;9.00;;;;;;;10.41;52.30;100364.09;107134;1251;73557;-81
2022/01/04 10:52:12;;;;;;;17.10;9.10;;;;;;;10.52;53.16;100369.83;107061;1251;59624;-78
2022/01/04 10:54:41;;;;;;;20.50;10.30;;;;;;;10.57;53.40;100368.38;107457;1250;60211;-80
2022/01/04 10:57:11;;;;;;;20.50;8.80;;;;;;;10.56;51.41;100364.28;107323;1251;73901;-81
2022/01/04 10:59:40;;;;;;;13.20;8.00;;;;;;;10.62;52.54;100360.52;107434;1251;70914;-75
2022/01/04 11:02:09;;;;;;;14.30;7.70;;;;;;;10.58;51.29;100355.61;107860;1249;69699;-78
2022/01/04 11:04:39;;;;;;;15.70;8.10;;;;;;;10.56;51.01;100348.48;107685;1249;72153;-77
2022/01/04 11:07:09;;;;;;;15.70;6.00;;;;;;;10.55;52.33;100347.96;107126;1249;61756;-80
2022/01/04 11:09:38;;;;;;;14.70;6.30;;;;;;;10.28;49.69;100339.80;107410;1249;60080;-78
2022/01/04 11:12:08;;;;;;;13.40;6.70;;;;;;;10.15;50.05;100332.42;107286;1251;72377;-80
2022/01/04 11:14:37;;;;;;;12.70;6.70;;;;;;;10.20;51.03;100329.49;107326;1249;72309;-78
2022/01/04 11:17:06;;;;;;;12.80;6.70;;;;;;;10.07;50.87;100330.77;107265;1249;70370;-78
2022/01/04 11:19:35;;;;;;;18.90;8.00;;;;;;;9.95;51.02;100332.02;107114;1251;72523;-79
2022/01/04 11:22:08;;;;;;;17.60;9.30;;;;;;;9.92;52.50;100332.63;107206;1251;60099;-78
2022/01/04 11:24:37;;;;;;;18.60;8.80;;;;;;;9.87;52.74;100327.39;107104;1249;61420;-81
2022/01/04 11:27:08;;;;;;;22.80;10.80;;;;;;;10.02;53.04;100331.70;107065;1250;74874;-79
2022/01/04 11:29:48;;;;;;;21.40;11.00;;;;;;;10.12;53.14;100324.67;107125;1250;72941;-78
2022/01/04 11:32:21;;;;;;;17.30;9.70;;;;;;;10.15;52.24;100316.42;107186;1250;71948;-75
2022/01/04 11:35:12;;;;;;;19.20;9.00;;;;;;;10.36;52.66;100307.14;107114;1251;74831;-80
2022/01/04 11:37:51;;;;;;;18.10;9.30;;;;;;;10.41;51.84;100295.52;107019;1252;59481;-79